sensor_id;sensor_type;location;lat;lon;timestamp;P1;durP1;ratioP1;P2;durP2;ratioP2
64293;SDS011;50636;45.596;5.258;2023-03-19T00:01:45;9.95;;;2.95;;
64293;SDS011;50636;45.596;5.258;2023-03-19T00:04:11;15.35;;;3.38;;
64293;SDS011;50636;45.596;5.258;2023-03-19T00:06:36;10.18;;;2.88;;
64293;SDS011;50636;45.596;5.258;2023-03-19T00:09:02;14.35;;;2.83;;
64293;SDS011;50636;45.596;5.258;2023-03-19T00:11:29;13.52;;;3.10;;
64293;SDS011;50636;45.596;5.258;2023-03-19T00:13:54;13.55;;;3.53;;
64293;SDS011;50636;45.596;5.258;2023-03-19T00:16:20;14.38;;;3.55;;
64293;SDS011;50636;45.596;5.258;2023-03-19T00:18:46;13.93;;;3.33;;
64293;SDS011;50636;45.596;5.258;2023-03-19T00:21:12;6.32;;;2.40;;
64293;SDS011;50636;45.596;5.258;2023-03-19T00:23:38;9.65;;;2.88;;
64293;SDS011;50636;45.596;5.258;2023-03-19T00:26:03;18.23;;;3.95;;
64293;SDS011;50636;45.596;5.258;2023-03-19T00:28:29;8.52;;;2.40;;
64293;SDS011;50636;45.596;5.258;2023-03-19T00:30:55;9.63;;;2.40;;
64293;SDS011;50636;45.596;5.258;2023-03-19T00:33:21;15.82;;;3.20;;
64293;SDS011;50636;45.596;5.258;2023-03-19T00:35:47;14.00;;;3.20;;
64293;SDS011;50636;45.596;5.258;2023-03-19T00:38:13;8.52;;;2.85;;
64293;SDS011;50636;45.596;5.258;2023-03-19T00:40:38;10.52;;;2.95;;
64293;SDS011;50636;45.596;5.258;2023-03-19T00:43:04;6.75;;;2.42;;
64293;SDS011;50636;45.596;5.258;2023-03-19T00:45:30;7.15;;;2.47;;
64293;SDS011;50636;45.596;5.258;2023-03-19T00:47:56;10.85;;;2.95;;
64293;SDS011;50636;45.596;5.258;2023-03-19T00:50:22;15.23;;;3.00;;
64293;SDS011;50636;45.596;5.258;2023-03-19T00:52:49;15.70;;;4.05;;
64293;SDS011;50636;45.596;5.258;2023-03-19T00:55:16;7.88;;;1.98;;
64293;SDS011;50636;45.596;5.258;2023-03-19T00:57:42;13.50;;;2.80;;
64293;SDS011;50636;45.596;5.258;2023-03-19T01:00:08;12.52;;;2.80;;
64293;SDS011;50636;45.596;5.258;2023-03-19T01:02:34;9.07;;;2.83;;
64293;SDS011;50636;45.596;5.258;2023-03-19T01:05:00;19.13;;;3.00;;
64293;SDS011;50636;45.596;5.258;2023-03-19T01:07:26;10.18;;;3.47;;
64293;SDS011;50636;45.596;5.258;2023-03-19T01:09:52;9.88;;;2.10;;
64293;SDS011;50636;45.596;5.258;2023-03-19T01:12:17;12.75;;;3.55;;
64293;SDS011;50636;45.596;5.258;2023-03-19T01:14:44;8.60;;;2.70;;
64293;SDS011;50636;45.596;5.258;2023-03-19T01:17:09;14.10;;;3.15;;
64293;SDS011;50636;45.596;5.258;2023-03-19T01:19:35;8.65;;;2.88;;
64293;SDS011;50636;45.596;5.258;2023-03-19T01:22:00;9.55;;;2.67;;
64293;SDS011;50636;45.596;5.258;2023-03-19T01:24:29;16.38;;;3.15;;
64293;SDS011;50636;45.596;5.258;2023-03-19T01:26:55;16.33;;;3.03;;
64293;SDS011;50636;45.596;5.258;2023-03-19T01:29:21;13.52;;;2.58;;
64293;SDS011;50636;45.596;5.258;2023-03-19T01:31:46;14.35;;;3.00;;
64293;SDS011;50636;45.596;5.258;2023-03-19T01:34:12;16.77;;;3.50;;
64293;SDS011;50636;45.596;5.258;2023-03-19T01:36:38;12.32;;;3.28;;
64293;SDS011;50636;45.596;5.258;2023-03-19T01:39:03;11.70;;;3.17;;
64293;SDS011;50636;45.596;5.258;2023-03-19T01:41:29;10.98;;;3.72;;
64293;SDS011;50636;45.596;5.258;2023-03-19T01:43:54;11.05;;;3.00;;
64293;SDS011;50636;45.596;5.258;2023-03-19T01:46:27;13.60;;;2.90;;
64293;SDS011;50636;45.596;5.258;2023-03-19T01:49:01;8.85;;;2.47;;
64293;SDS011;50636;45.596;5.258;2023-03-19T01:51:32;8.43;;;2.60;;
64293;SDS011;50636;45.596;5.258;2023-03-19T01:54:03;11.38;;;3.33;;
64293;SDS011;50636;45.596;5.258;2023-03-19T01:56:33;12.43;;;3.35;;
64293;SDS011;50636;45.596;5.258;2023-03-19T01:59:44;10.27;;;2.17;;
64293;SDS011;50636;45.596;5.258;2023-03-19T02:02:07;8.43;;;2.55;;
64293;SDS011;50636;45.596;5.258;2023-03-19T02:04:38;13.73;;;2.90;;
64293;SDS011;50636;45.596;5.258;2023-03-19T02:07:06;12.02;;;3.05;;
64293;SDS011;50636;45.596;5.258;2023-03-19T02:09:33;11.73;;;2.97;;
64293;SDS011;50636;45.596;5.258;2023-03-19T02:12:00;11.75;;;2.30;;
64293;SDS011;50636;45.596;5.258;2023-03-19T02:14:26;9.13;;;3.33;;
64293;SDS011;50636;45.596;5.258;2023-03-19T02:16:52;14.02;;;2.55;;
64293;SDS011;50636;45.596;5.258;2023-03-19T02:22:15;15.52;;;3.25;;
64293;SDS011;50636;45.596;5.258;2023-03-19T02:24:50;14.80;;;2.67;;
64293;SDS011;50636;45.596;5.258;2023-03-19T02:27:24;9.68;;;2.53;;
64293;SDS011;50636;45.596;5.258;2023-03-19T02:29:49;10.13;;;3.40;;
64293;SDS011;50636;45.596;5.258;2023-03-19T02:32:15;15.93;;;2.65;;
64293;SDS011;50636;45.596;5.258;2023-03-19T02:34:41;14.25;;;2.83;;
64293;SDS011;50636;45.596;5.258;2023-03-19T02:37:10;13.82;;;2.70;;
64293;SDS011;50636;45.596;5.258;2023-03-19T02:42:19;8.95;;;2.25;;
64293;SDS011;50636;45.596;5.258;2023-03-19T02:44:46;8.00;;;1.92;;
64293;SDS011;50636;45.596;5.258;2023-03-19T02:47:12;10.65;;;2.78;;
64293;SDS011;50636;45.596;5.258;2023-03-19T02:49:38;11.60;;;2.50;;
64293;SDS011;50636;45.596;5.258;2023-03-19T02:52:04;11.50;;;3.58;;
64293;SDS011;50636;45.596;5.258;2023-03-19T02:54:29;12.45;;;2.33;;
64293;SDS011;50636;45.596;5.258;2023-03-19T02:56:55;11.50;;;2.85;;
64293;SDS011;50636;45.596;5.258;2023-03-19T02:59:20;11.27;;;2.35;;
64293;SDS011;50636;45.596;5.258;2023-03-19T03:01:46;11.90;;;2.63;;
64293;SDS011;50636;45.596;5.258;2023-03-19T03:04:12;10.93;;;2.50;;
64293;SDS011;50636;45.596;5.258;2023-03-19T03:06:40;10.75;;;2.28;;
64293;SDS011;50636;45.596;5.258;2023-03-19T03:09:07;10.38;;;2.70;;
64293;SDS011;50636;45.596;5.258;2023-03-19T03:11:33;10.38;;;2.70;;
64293;SDS011;50636;45.596;5.258;2023-03-19T03:13:58;16.88;;;3.17;;
64293;SDS011;50636;45.596;5.258;2023-03-19T03:16:24;8.00;;;2.00;;
64293;SDS011;50636;45.596;5.258;2023-03-19T03:18:50;12.05;;;2.97;;
64293;SDS011;50636;45.596;5.258;2023-03-19T03:21:17;11.85;;;3.00;;
64293;SDS011;50636;45.596;5.258;2023-03-19T03:23:45;8.02;;;2.70;;
64293;SDS011;50636;45.596;5.258;2023-03-19T03:26:12;8.52;;;3.88;;
64293;SDS011;50636;45.596;5.258;2023-03-19T03:28:38;15.60;;;3.67;;
64293;SDS011;50636;45.596;5.258;2023-03-19T03:31:03;12.50;;;3.42;;
64293;SDS011;50636;45.596;5.258;2023-03-19T03:33:29;13.27;;;3.83;;
64293;SDS011;50636;45.596;5.258;2023-03-19T03:35:55;17.70;;;3.75;;
64293;SDS011;50636;45.596;5.258;2023-03-19T03:38:21;13.18;;;3.92;;
64293;SDS011;50636;45.596;5.258;2023-03-19T03:40:51;17.33;;;2.90;;
64293;SDS011;50636;45.596;5.258;2023-03-19T03:43:17;11.73;;;3.33;;
64293;SDS011;50636;45.596;5.258;2023-03-19T03:45:44;12.00;;;3.53;;
64293;SDS011;50636;45.596;5.258;2023-03-19T03:48:11;9.38;;;2.97;;
64293;SDS011;50636;45.596;5.258;2023-03-19T03:50:38;11.52;;;2.63;;
64293;SDS011;50636;45.596;5.258;2023-03-19T03:53:04;6.70;;;1.67;;
64293;SDS011;50636;45.596;5.258;2023-03-19T03:55:30;16.30;;;3.50;;
64293;SDS011;50636;45.596;5.258;2023-03-19T03:57:56;7.88;;;2.30;;
64293;SDS011;50636;45.596;5.258;2023-03-19T04:00:22;15.18;;;4.65;;
64293;SDS011;50636;45.596;5.258;2023-03-19T04:02:48;14.63;;;3.78;;
64293;SDS011;50636;45.596;5.258;2023-03-19T04:05:15;9.50;;;2.53;;
64293;SDS011;50636;45.596;5.258;2023-03-19T04:07:41;9.20;;;3.20;;
64293;SDS011;50636;45.596;5.258;2023-03-19T04:10:08;15.48;;;4.43;;
64293;SDS011;50636;45.596;5.258;2023-03-19T04:12:36;13.52;;;3.20;;
64293;SDS011;50636;45.596;5.258;2023-03-19T04:15:02;9.55;;;3.05;;
64293;SDS011;50636;45.596;5.258;2023-03-19T04:17:29;16.10;;;4.07;;
64293;SDS011;50636;45.596;5.258;2023-03-19T04:19:54;11.25;;;3.17;;
64293;SDS011;50636;45.596;5.258;2023-03-19T04:22:20;7.55;;;2.47;;
64293;SDS011;50636;45.596;5.258;2023-03-19T04:24:46;12.10;;;4.05;;
64293;SDS011;50636;45.596;5.258;2023-03-19T04:27:12;11.20;;;4.50;;
64293;SDS011;50636;45.596;5.258;2023-03-19T04:29:37;16.20;;;4.10;;
64293;SDS011;50636;45.596;5.258;2023-03-19T04:32:03;20.42;;;5.78;;
64293;SDS011;50636;45.596;5.258;2023-03-19T04:34:29;5.57;;;1.90;;
64293;SDS011;50636;45.596;5.258;2023-03-19T04:36:56;10.05;;;2.60;;
64293;SDS011;50636;45.596;5.258;2023-03-19T04:39:22;9.35;;;3.08;;
64293;SDS011;50636;45.596;5.258;2023-03-19T04:41:48;9.85;;;3.78;;
64293;SDS011;50636;45.596;5.258;2023-03-19T04:44:14;10.18;;;2.90;;
64293;SDS011;50636;45.596;5.258;2023-03-19T04:46:40;14.60;;;3.80;;
64293;SDS011;50636;45.596;5.258;2023-03-19T04:49:06;11.30;;;4.72;;
64293;SDS011;50636;45.596;5.258;2023-03-19T04:51:32;9.07;;;3.28;;
64293;SDS011;50636;45.596;5.258;2023-03-19T04:53:58;10.68;;;2.70;;
64293;SDS011;50636;45.596;5.258;2023-03-19T04:56:24;11.10;;;3.22;;
64293;SDS011;50636;45.596;5.258;2023-03-19T04:58:49;13.18;;;3.05;;
64293;SDS011;50636;45.596;5.258;2023-03-19T05:01:15;12.32;;;2.72;;
64293;SDS011;50636;45.596;5.258;2023-03-19T05:03:41;7.63;;;2.38;;
64293;SDS011;50636;45.596;5.258;2023-03-19T05:06:07;11.55;;;3.75;;
64293;SDS011;50636;45.596;5.258;2023-03-19T05:08:32;12.77;;;3.00;;
64293;SDS011;50636;45.596;5.258;2023-03-19T05:10:58;10.10;;;3.13;;
64293;SDS011;50636;45.596;5.258;2023-03-19T05:13:24;13.32;;;2.42;;
64293;SDS011;50636;45.596;5.258;2023-03-19T05:15:51;9.93;;;4.18;;
64293;SDS011;50636;45.596;5.258;2023-03-19T05:18:18;6.85;;;2.60;;
64293;SDS011;50636;45.596;5.258;2023-03-19T05:20:44;10.85;;;4.05;;
64293;SDS011;50636;45.596;5.258;2023-03-19T05:23:09;9.77;;;2.88;;
64293;SDS011;50636;45.596;5.258;2023-03-19T05:25:35;9.65;;;3.08;;
64293;SDS011;50636;45.596;5.258;2023-03-19T05:28:01;6.28;;;2.85;;
64293;SDS011;50636;45.596;5.258;2023-03-19T05:30:28;14.00;;;3.75;;
64293;SDS011;50636;45.596;5.258;2023-03-19T05:32:55;10.52;;;3.38;;
64293;SDS011;50636;45.596;5.258;2023-03-19T05:35:21;11.20;;;3.38;;
64293;SDS011;50636;45.596;5.258;2023-03-19T05:37:47;10.60;;;4.28;;
64293;SDS011;50636;45.596;5.258;2023-03-19T05:40:13;8.43;;;3.35;;
64293;SDS011;50636;45.596;5.258;2023-03-19T05:42:38;8.82;;;3.55;;
64293;SDS011;50636;45.596;5.258;2023-03-19T05:45:04;15.85;;;4.47;;
64293;SDS011;50636;45.596;5.258;2023-03-19T05:47:30;7.35;;;3.35;;
64293;SDS011;50636;45.596;5.258;2023-03-19T05:49:56;13.45;;;3.67;;
64293;SDS011;50636;45.596;5.258;2023-03-19T05:52:22;18.15;;;4.32;;
64293;SDS011;50636;45.596;5.258;2023-03-19T05:54:47;9.00;;;3.60;;
64293;SDS011;50636;45.596;5.258;2023-03-19T05:57:14;12.98;;;4.35;;
64293;SDS011;50636;45.596;5.258;2023-03-19T05:59:40;16.10;;;3.58;;
64293;SDS011;50636;45.596;5.258;2023-03-19T06:02:06;9.70;;;3.72;;
64293;SDS011;50636;45.596;5.258;2023-03-19T06:04:32;10.32;;;2.83;;
64293;SDS011;50636;45.596;5.258;2023-03-19T06:06:58;13.88;;;4.88;;
64293;SDS011;50636;45.596;5.258;2023-03-19T06:09:23;9.27;;;2.90;;
64293;SDS011;50636;45.596;5.258;2023-03-19T06:11:49;13.20;;;3.92;;
64293;SDS011;50636;45.596;5.258;2023-03-19T06:14:15;17.13;;;4.22;;
64293;SDS011;50636;45.596;5.258;2023-03-19T06:16:40;9.98;;;4.20;;
64293;SDS011;50636;45.596;5.258;2023-03-19T06:19:06;7.32;;;3.47;;
64293;SDS011;50636;45.596;5.258;2023-03-19T06:21:32;9.98;;;4.07;;
64293;SDS011;50636;45.596;5.258;2023-03-19T06:23:58;14.65;;;5.63;;
64293;SDS011;50636;45.596;5.258;2023-03-19T06:26:23;11.23;;;4.57;;
64293;SDS011;50636;45.596;5.258;2023-03-19T06:28:49;10.43;;;4.40;;
64293;SDS011;50636;45.596;5.258;2023-03-19T06:31:15;7.55;;;3.15;;
64293;SDS011;50636;45.596;5.258;2023-03-19T06:33:41;12.40;;;3.50;;
64293;SDS011;50636;45.596;5.258;2023-03-19T06:36:07;13.35;;;3.30;;
64293;SDS011;50636;45.596;5.258;2023-03-19T06:38:33;12.75;;;3.55;;
64293;SDS011;50636;45.596;5.258;2023-03-19T06:41:00;11.90;;;4.07;;
64293;SDS011;50636;45.596;5.258;2023-03-19T06:43:26;8.90;;;3.45;;
64293;SDS011;50636;45.596;5.258;2023-03-19T06:45:51;7.90;;;2.33;;
64293;SDS011;50636;45.596;5.258;2023-03-19T06:48:17;5.97;;;2.65;;
64293;SDS011;50636;45.596;5.258;2023-03-19T06:50:44;11.25;;;3.22;;
64293;SDS011;50636;45.596;5.258;2023-03-19T06:53:10;11.30;;;3.88;;
64293;SDS011;50636;45.596;5.258;2023-03-19T06:55:37;13.75;;;3.28;;
64293;SDS011;50636;45.596;5.258;2023-03-19T06:58:02;7.05;;;2.95;;
64293;SDS011;50636;45.596;5.258;2023-03-19T07:00:28;8.35;;;3.10;;
64293;SDS011;50636;45.596;5.258;2023-03-19T07:02:54;8.32;;;3.20;;
64293;SDS011;50636;45.596;5.258;2023-03-19T07:05:19;12.15;;;2.90;;
64293;SDS011;50636;45.596;5.258;2023-03-19T07:07:45;15.63;;;3.88;;
64293;SDS011;50636;45.596;5.258;2023-03-19T07:10:11;7.53;;;3.00;;
64293;SDS011;50636;45.596;5.258;2023-03-19T07:12:37;10.95;;;3.47;;
64293;SDS011;50636;45.596;5.258;2023-03-19T07:15:02;8.50;;;2.70;;
64293;SDS011;50636;45.596;5.258;2023-03-19T07:17:29;9.18;;;2.83;;
64293;SDS011;50636;45.596;5.258;2023-03-19T07:19:54;13.82;;;3.38;;
64293;SDS011;50636;45.596;5.258;2023-03-19T07:22:20;13.10;;;4.55;;
64293;SDS011;50636;45.596;5.258;2023-03-19T07:24:46;9.45;;;3.22;;
64293;SDS011;50636;45.596;5.258;2023-03-19T07:27:12;12.45;;;3.95;;
64293;SDS011;50636;45.596;5.258;2023-03-19T07:29:37;10.02;;;3.13;;
64293;SDS011;50636;45.596;5.258;2023-03-19T07:32:03;9.82;;;3.13;;
64293;SDS011;50636;45.596;5.258;2023-03-19T07:34:29;10.40;;;4.38;;
64293;SDS011;50636;45.596;5.258;2023-03-19T07:36:55;9.55;;;3.20;;
64293;SDS011;50636;45.596;5.258;2023-03-19T07:39:20;10.85;;;4.00;;
64293;SDS011;50636;45.596;5.258;2023-03-19T07:41:46;11.07;;;3.60;;
64293;SDS011;50636;45.596;5.258;2023-03-19T07:44:13;13.43;;;3.78;;
64293;SDS011;50636;45.596;5.258;2023-03-19T07:46:39;6.38;;;2.92;;
64293;SDS011;50636;45.596;5.258;2023-03-19T07:49:05;11.85;;;4.30;;
64293;SDS011;50636;45.596;5.258;2023-03-19T07:51:32;10.75;;;4.63;;
64293;SDS011;50636;45.596;5.258;2023-03-19T07:53:57;6.93;;;3.33;;
64293;SDS011;50636;45.596;5.258;2023-03-19T07:56:23;13.15;;;7.03;;
64293;SDS011;50636;45.596;5.258;2023-03-19T07:58:49;8.93;;;3.60;;
64293;SDS011;50636;45.596;5.258;2023-03-19T08:01:16;9.13;;;4.70;;
64293;SDS011;50636;45.596;5.258;2023-03-19T08:03:42;7.60;;;3.42;;
64293;SDS011;50636;45.596;5.258;2023-03-19T08:06:08;8.55;;;3.53;;
64293;SDS011;50636;45.596;5.258;2023-03-19T08:08:34;7.68;;;3.10;;
64293;SDS011;50636;45.596;5.258;2023-03-19T08:11:00;7.55;;;3.13;;
64293;SDS011;50636;45.596;5.258;2023-03-19T08:13:26;8.32;;;3.42;;
64293;SDS011;50636;45.596;5.258;2023-03-19T08:15:52;10.95;;;3.60;;
64293;SDS011;50636;45.596;5.258;2023-03-19T08:18:18;11.07;;;3.42;;
64293;SDS011;50636;45.596;5.258;2023-03-19T08:20:45;14.45;;;4.10;;
64293;SDS011;50636;45.596;5.258;2023-03-19T08:23:11;13.80;;;4.78;;
64293;SDS011;50636;45.596;5.258;2023-03-19T08:25:37;5.85;;;2.65;;
64293;SDS011;50636;45.596;5.258;2023-03-19T08:28:03;11.18;;;3.10;;
64293;SDS011;50636;45.596;5.258;2023-03-19T08:30:29;9.20;;;3.10;;
64293;SDS011;50636;45.596;5.258;2023-03-19T08:32:56;7.75;;;2.70;;
64293;SDS011;50636;45.596;5.258;2023-03-19T08:35:22;8.95;;;3.70;;
64293;SDS011;50636;45.596;5.258;2023-03-19T08:37:48;8.80;;;3.70;;
64293;SDS011;50636;45.596;5.258;2023-03-19T08:40:13;11.80;;;3.67;;
64293;SDS011;50636;45.596;5.258;2023-03-19T08:42:39;7.03;;;3.42;;
64293;SDS011;50636;45.596;5.258;2023-03-19T08:45:09;10.93;;;3.47;;
64293;SDS011;50636;45.596;5.258;2023-03-19T08:47:37;13.35;;;4.32;;
64293;SDS011;50636;45.596;5.258;2023-03-19T08:50:03;10.45;;;4.03;;
64293;SDS011;50636;45.596;5.258;2023-03-19T08:52:30;10.07;;;2.70;;
64293;SDS011;50636;45.596;5.258;2023-03-19T08:54:55;10.73;;;3.78;;
64293;SDS011;50636;45.596;5.258;2023-03-19T08:57:21;10.05;;;3.13;;
64293;SDS011;50636;45.596;5.258;2023-03-19T08:59:47;7.93;;;4.45;;
64293;SDS011;50636;45.596;5.258;2023-03-19T09:02:12;9.88;;;3.28;;
64293;SDS011;50636;45.596;5.258;2023-03-19T09:04:42;13.05;;;3.28;;
64293;SDS011;50636;45.596;5.258;2023-03-19T09:07:08;7.82;;;2.22;;
64293;SDS011;50636;45.596;5.258;2023-03-19T09:09:39;8.25;;;3.22;;
64293;SDS011;50636;45.596;5.258;2023-03-19T09:12:06;6.85;;;3.50;;
64293;SDS011;50636;45.596;5.258;2023-03-19T09:14:34;7.38;;;2.47;;
64293;SDS011;50636;45.596;5.258;2023-03-19T09:17:00;7.25;;;2.55;;
64293;SDS011;50636;45.596;5.258;2023-03-19T09:19:26;8.70;;;3.63;;
64293;SDS011;50636;45.596;5.258;2023-03-19T09:21:51;8.68;;;2.78;;
64293;SDS011;50636;45.596;5.258;2023-03-19T09:24:17;6.32;;;2.90;;
64293;SDS011;50636;45.596;5.258;2023-03-19T09:26:44;10.25;;;2.63;;
64293;SDS011;50636;45.596;5.258;2023-03-19T09:29:10;9.15;;;2.78;;
64293;SDS011;50636;45.596;5.258;2023-03-19T09:31:37;7.93;;;3.20;;
64293;SDS011;50636;45.596;5.258;2023-03-19T09:34:02;7.10;;;2.50;;
64293;SDS011;50636;45.596;5.258;2023-03-19T09:36:28;6.88;;;2.70;;
64293;SDS011;50636;45.596;5.258;2023-03-19T09:38:54;7.72;;;3.10;;
64293;SDS011;50636;45.596;5.258;2023-03-19T09:41:28;8.18;;;3.20;;
64293;SDS011;50636;45.596;5.258;2023-03-19T09:46:35;6.85;;;2.50;;
64293;SDS011;50636;45.596;5.258;2023-03-19T09:49:27;9.85;;;2.28;;
64293;SDS011;50636;45.596;5.258;2023-03-19T09:54:38;5.00;;;1.80;;
64293;SDS011;50636;45.596;5.258;2023-03-19T09:57:16;5.70;;;2.22;;
64293;SDS011;50636;45.596;5.258;2023-03-19T09:59:42;8.98;;;2.00;;
64293;SDS011;50636;45.596;5.258;2023-03-19T10:02:50;5.25;;;2.28;;
64293;SDS011;50636;45.596;5.258;2023-03-19T10:16:41;6.13;;;2.28;;
64293;SDS011;50636;45.596;5.258;2023-03-19T10:19:11;7.32;;;2.85;;
64293;SDS011;50636;45.596;5.258;2023-03-19T10:21:42;3.70;;;1.60;;
64293;SDS011;50636;45.596;5.258;2023-03-19T10:24:22;5.95;;;2.42;;
64293;SDS011;50636;45.596;5.258;2023-03-19T10:26:59;5.22;;;2.45;;
64293;SDS011;50636;45.596;5.258;2023-03-19T10:29:27;4.30;;;1.88;;
64293;SDS011;50636;45.596;5.258;2023-03-19T10:34:45;4.05;;;1.50;;
64293;SDS011;50636;45.596;5.258;2023-03-19T10:37:19;5.65;;;1.95;;
64293;SDS011;50636;45.596;5.258;2023-03-19T10:39:47;4.53;;;1.95;;
64293;SDS011;50636;45.596;5.258;2023-03-19T10:45:26;4.20;;;2.03;;
64293;SDS011;50636;45.596;5.258;2023-03-19T10:47:52;4.63;;;1.70;;
64293;SDS011;50636;45.596;5.258;2023-03-19T10:50:21;5.38;;;1.67;;
64293;SDS011;50636;45.596;5.258;2023-03-19T10:55:46;3.67;;;1.85;;
64293;SDS011;50636;45.596;5.258;2023-03-19T10:58:24;6.10;;;1.52;;
64293;SDS011;50636;45.596;5.258;2023-03-19T11:00:55;5.78;;;2.00;;
64293;SDS011;50636;45.596;5.258;2023-03-19T11:03:39;4.32;;;1.80;;
64293;SDS011;50636;45.596;5.258;2023-03-19T11:06:20;5.38;;;1.65;;
64293;SDS011;50636;45.596;5.258;2023-03-19T11:11:34;10.88;;;1.90;;
64293;SDS011;50636;45.596;5.258;2023-03-19T11:16:47;2.85;;;1.35;;
64293;SDS011;50636;45.596;5.258;2023-03-19T11:19:17;6.75;;;2.25;;
64293;SDS011;50636;45.596;5.258;2023-03-19T11:24:25;4.72;;;2.42;;
64293;SDS011;50636;45.596;5.258;2023-03-19T11:26:54;5.93;;;1.80;;
64293;SDS011;50636;45.596;5.258;2023-03-19T11:29:21;4.30;;;1.60;;
64293;SDS011;50636;45.596;5.258;2023-03-19T11:32:07;1.88;;;1.30;;
64293;SDS011;50636;45.596;5.258;2023-03-19T11:35:10;2.92;;;1.42;;
64293;SDS011;50636;45.596;5.258;2023-03-19T11:40:35;5.40;;;1.95;;
64293;SDS011;50636;45.596;5.258;2023-03-19T11:56:47;7.70;;;1.85;;
64293;SDS011;50636;45.596;5.258;2023-03-19T12:21:53;5.68;;;2.45;;
64293;SDS011;50636;45.596;5.258;2023-03-19T12:30:42;5.07;;;1.33;;
64293;SDS011;50636;45.596;5.258;2023-03-19T12:33:27;6.82;;;1.20;;
64293;SDS011;50636;45.596;5.258;2023-03-19T12:36:14;8.25;;;1.50;;
64293;SDS011;50636;45.596;5.258;2023-03-19T12:39:03;6.53;;;1.48;;
64293;SDS011;50636;45.596;5.258;2023-03-19T12:41:34;3.22;;;1.15;;
64293;SDS011;50636;45.596;5.258;2023-03-19T12:46:44;2.88;;;1.15;;
64293;SDS011;50636;45.596;5.258;2023-03-19T12:49:32;4.00;;;1.92;;
64293;SDS011;50636;45.596;5.258;2023-03-19T12:52:21;3.50;;;1.30;;
64293;SDS011;50636;45.596;5.258;2023-03-19T12:55:15;6.68;;;1.85;;
64293;SDS011;50636;45.596;5.258;2023-03-19T12:57:48;3.55;;;1.10;;
64293;SDS011;50636;45.596;5.258;2023-03-19T13:08:40;6.07;;;1.30;;
64293;SDS011;50636;45.596;5.258;2023-03-19T13:11:17;6.03;;;1.70;;
64293;SDS011;50636;45.596;5.258;2023-03-19T13:14:07;3.75;;;1.20;;
64293;SDS011;50636;45.596;5.258;2023-03-19T13:17:08;3.15;;;1.10;;
64293;SDS011;50636;45.596;5.258;2023-03-19T13:19:45;4.80;;;1.70;;
64293;SDS011;50636;45.596;5.258;2023-03-19T13:22:18;5.57;;;1.48;;
64293;SDS011;50636;45.596;5.258;2023-03-19T13:24:47;5.28;;;0.95;;
64293;SDS011;50636;45.596;5.258;2023-03-19T13:27:18;4.15;;;0.90;;
64293;SDS011;50636;45.596;5.258;2023-03-19T13:30:01;4.07;;;1.35;;
64293;SDS011;50636;45.596;5.258;2023-03-19T13:32:43;4.10;;;1.00;;
64293;SDS011;50636;45.596;5.258;2023-03-19T13:35:18;6.63;;;1.17;;
64293;SDS011;50636;45.596;5.258;2023-03-19T13:38:25;2.17;;;1.00;;
64293;SDS011;50636;45.596;5.258;2023-03-19T13:40:55;2.60;;;1.25;;
64293;SDS011;50636;45.596;5.258;2023-03-19T13:48:37;5.15;;;1.73;;
64293;SDS011;50636;45.596;5.258;2023-03-19T13:56:25;1.88;;;1.10;;
64293;SDS011;50636;45.596;5.258;2023-03-19T13:59:38;2.50;;;1.10;;
64293;SDS011;50636;45.596;5.258;2023-03-19T14:07:27;1.90;;;1.20;;
64293;SDS011;50636;45.596;5.258;2023-03-19T14:20:25;1.98;;;1.10;;
64293;SDS011;50636;45.596;5.258;2023-03-19T14:28:44;5.03;;;1.52;;
64293;SDS011;50636;45.596;5.258;2023-03-19T14:31:27;2.20;;;1.65;;
64293;SDS011;50636;45.596;5.258;2023-03-19T14:36:42;2.15;;;1.40;;
64293;SDS011;50636;45.596;5.258;2023-03-19T14:39:20;1.65;;;0.93;;
64293;SDS011;50636;45.596;5.258;2023-03-19T14:41:49;2.90;;;1.08;;
64293;SDS011;50636;45.596;5.258;2023-03-19T14:47:03;5.15;;;1.42;;
64293;SDS011;50636;45.596;5.258;2023-03-19T14:52:43;3.97;;;0.93;;
64293;SDS011;50636;45.596;5.258;2023-03-19T14:55:17;2.85;;;1.20;;
64293;SDS011;50636;45.596;5.258;2023-03-19T14:57:44;5.38;;;1.90;;
64293;SDS011;50636;45.596;5.258;2023-03-19T15:00:14;3.05;;;1.00;;
64293;SDS011;50636;45.596;5.258;2023-03-19T15:07:51;2.80;;;1.35;;
64293;SDS011;50636;45.596;5.258;2023-03-19T15:10:21;3.00;;;1.00;;
64293;SDS011;50636;45.596;5.258;2023-03-19T15:13:00;3.70;;;1.02;;
64293;SDS011;50636;45.596;5.258;2023-03-19T15:16:01;4.60;;;1.08;;
64293;SDS011;50636;45.596;5.258;2023-03-19T15:18:32;1.60;;;0.73;;
64293;SDS011;50636;45.596;5.258;2023-03-19T15:21:00;1.45;;;0.80;;
64293;SDS011;50636;45.596;5.258;2023-03-19T15:23:27;4.28;;;1.42;;
64293;SDS011;50636;45.596;5.258;2023-03-19T15:25:54;1.83;;;1.00;;
64293;SDS011;50636;45.596;5.258;2023-03-19T15:28:26;2.85;;;1.20;;
64293;SDS011;50636;45.596;5.258;2023-03-19T15:30:58;3.00;;;1.20;;
64293;SDS011;50636;45.596;5.258;2023-03-19T15:33:31;4.93;;;1.33;;
64293;SDS011;50636;45.596;5.258;2023-03-19T15:39:03;3.70;;;0.90;;
64293;SDS011;50636;45.596;5.258;2023-03-19T15:41:32;2.20;;;1.10;;
64293;SDS011;50636;45.596;5.258;2023-03-19T15:44:04;3.50;;;1.33;;
64293;SDS011;50636;45.596;5.258;2023-03-19T15:46:33;2.53;;;1.10;;
64293;SDS011;50636;45.596;5.258;2023-03-19T15:49:12;5.15;;;1.92;;
64293;SDS011;50636;45.596;5.258;2023-03-19T15:51:54;2.85;;;1.35;;
64293;SDS011;50636;45.596;5.258;2023-03-19T15:54:26;2.67;;;1.10;;
64293;SDS011;50636;45.596;5.258;2023-03-19T15:56:52;2.78;;;1.20;;
64293;SDS011;50636;45.596;5.258;2023-03-19T15:59:19;3.60;;;1.65;;
64293;SDS011;50636;45.596;5.258;2023-03-19T16:01:49;2.97;;;1.50;;
64293;SDS011;50636;45.596;5.258;2023-03-19T16:04:16;2.58;;;1.05;;
64293;SDS011;50636;45.596;5.258;2023-03-19T16:06:47;4.47;;;1.52;;
64293;SDS011;50636;45.596;5.258;2023-03-19T16:09:20;2.53;;;1.52;;
64293;SDS011;50636;45.596;5.258;2023-03-19T16:11:48;4.20;;;1.52;;
64293;SDS011;50636;45.596;5.258;2023-03-19T16:14:22;4.20;;;1.38;;
64293;SDS011;50636;45.596;5.258;2023-03-19T16:16:50;5.32;;;1.83;;
64293;SDS011;50636;45.596;5.258;2023-03-19T16:19:30;1.25;;;1.15;;
64293;SDS011;50636;45.596;5.258;2023-03-19T16:22:01;3.38;;;1.15;;
64293;SDS011;50636;45.596;5.258;2023-03-19T16:24:41;4.32;;;1.20;;
64293;SDS011;50636;45.596;5.258;2023-03-19T16:27:14;5.75;;;1.23;;
64293;SDS011;50636;45.596;5.258;2023-03-19T16:29:45;4.15;;;1.00;;
64293;SDS011;50636;45.596;5.258;2023-03-19T16:32:20;2.67;;;1.35;;
64293;SDS011;50636;45.596;5.258;2023-03-19T16:34:52;1.70;;;0.82;;
64293;SDS011;50636;45.596;5.258;2023-03-19T16:39:58;2.03;;;1.10;;
64293;SDS011;50636;45.596;5.258;2023-03-19T16:47:42;4.05;;;1.02;;
64293;SDS011;50636;45.596;5.258;2023-03-19T16:50:09;2.80;;;1.20;;
64293;SDS011;50636;45.596;5.258;2023-03-19T16:52:35;3.80;;;1.20;;
64293;SDS011;50636;45.596;5.258;2023-03-19T16:55:03;3.22;;;1.17;;
64293;SDS011;50636;45.596;5.258;2023-03-19T16:57:36;5.93;;;1.58;;
64293;SDS011;50636;45.596;5.258;2023-03-19T17:00:02;2.95;;;1.00;;
64293;SDS011;50636;45.596;5.258;2023-03-19T17:02:29;3.10;;;1.40;;
64293;SDS011;50636;45.596;5.258;2023-03-19T17:04:54;4.93;;;1.58;;
64293;SDS011;50636;45.596;5.258;2023-03-19T17:07:20;3.65;;;1.80;;
64293;SDS011;50636;45.596;5.258;2023-03-19T17:09:46;8.27;;;1.98;;
64293;SDS011;50636;45.596;5.258;2023-03-19T17:12:13;7.10;;;2.13;;
64293;SDS011;50636;45.596;5.258;2023-03-19T17:14:40;2.40;;;1.00;;
64293;SDS011;50636;45.596;5.258;2023-03-19T17:17:16;6.72;;;1.58;;
64293;SDS011;50636;45.596;5.258;2023-03-19T17:19:44;5.57;;;2.15;;
64293;SDS011;50636;45.596;5.258;2023-03-19T17:22:11;5.80;;;1.83;;
64293;SDS011;50636;45.596;5.258;2023-03-19T17:24:40;8.65;;;1.80;;
64293;SDS011;50636;45.596;5.258;2023-03-19T17:27:05;5.68;;;2.00;;